createdAt,value
2023-11-25T00:00:39.763Z,1172.00
2023-11-25T00:01:39.964Z,1171.00
2023-11-25T00:02:49.885Z,1171.00
2023-11-25T00:03:39.965Z,1162.00
2023-11-25T00:04:39.879Z,1156.00
2023-11-25T00:05:39.819Z,1153.00
2023-11-25T00:06:39.825Z,1154.00
2023-11-25T00:07:39.852Z,1154.00
2023-11-25T00:08:39.791Z,1153.00
2023-11-25T00:09:39.797Z,1155.00
2023-11-25T00:10:39.838Z,1158.00
2023-11-25T00:11:39.755Z,1162.00
2023-11-25T00:12:39.814Z,1162.00
2023-11-25T00:13:39.764Z,1165.00
2023-11-25T00:14:39.752Z,1170.00
2023-11-25T00:15:39.739Z,1171.00
2023-11-25T00:16:39.812Z,1168.00
2023-11-25T00:17:39.741Z,1166.00
2023-11-25T00:18:39.711Z,1158.00
2023-11-25T00:19:39.733Z,1158.00
2023-11-25T00:20:39.684Z,1158.00
2023-11-25T00:21:39.679Z,1150.00
2023-11-25T00:22:39.740Z,1149.00
2023-11-25T00:23:39.668Z,1149.00
2023-11-25T00:24:39.649Z,1151.00
2023-11-25T00:25:39.714Z,1145.00
2023-11-25T00:26:39.654Z,1134.00
2023-11-25T00:27:39.621Z,1128.00
2023-11-25T00:28:39.682Z,1135.00
2023-11-25T00:29:39.608Z,1139.00
2023-11-25T00:30:39.786Z,1139.00
2023-11-25T00:31:39.666Z,1137.00
2023-11-25T00:32:39.629Z,1142.00
2023-11-25T00:33:39.607Z,1141.00
2023-11-25T00:34:39.593Z,1142.00
2023-11-25T00:35:39.558Z,1144.00
2023-11-25T00:36:39.555Z,1140.00
2023-11-25T00:37:39.546Z,1133.00
2023-11-25T00:38:39.600Z,1131.00
2023-11-25T00:39:39.530Z,1126.00
2023-11-25T00:40:39.658Z,1120.00
2023-11-25T00:41:39.505Z,1122.00
2023-11-25T00:42:39.507Z,1125.00
2023-11-25T00:43:39.656Z,1132.00
2023-11-25T00:44:39.544Z,1144.00
2023-11-25T00:45:39.516Z,1144.00
2023-11-25T00:46:39.599Z,1141.00
2023-11-25T00:47:39.541Z,1141.00
2023-11-25T00:48:39.448Z,1134.00
2023-11-25T00:49:39.536Z,1136.00
2023-11-25T00:50:39.457Z,1133.00
2023-11-25T00:51:39.442Z,1133.00
2023-11-25T00:52:39.582Z,1129.00
2023-11-25T00:53:39.450Z,1130.00
2023-11-25T00:54:39.408Z,1128.00
2023-11-25T00:55:39.456Z,1123.00
2023-11-25T00:56:39.392Z,1124.00
2023-11-25T00:57:39.379Z,1130.00
2023-11-25T00:58:39.435Z,1121.00
2023-11-25T00:59:39.357Z,1113.00
2023-11-25T01:00:39.368Z,1114.00
2023-11-25T01:01:39.459Z,1110.00
2023-11-25T01:02:39.518Z,1109.00
2023-11-25T01:03:39.565Z,1109.00
2023-11-25T01:04:39.385Z,1111.00
2023-11-25T01:05:39.299Z,1118.00
2023-11-25T01:06:39.318Z,1120.00
2023-11-25T01:07:39.335Z,1119.00
2023-11-25T01:08:39.279Z,1122.00
2023-11-25T01:09:39.294Z,1120.00
2023-11-25T01:10:39.311Z,1117.00
2023-11-25T01:11:39.328Z,1115.00
2023-11-25T01:12:39.257Z,1103.00
2023-11-25T01:13:39.282Z,1108.00
2023-11-25T01:14:39.229Z,1117.00
2023-11-25T01:15:39.218Z,1114.00
2023-11-25T01:16:39.308Z,1117.00
2023-11-25T01:17:39.248Z,1111.00
2023-11-25T01:18:39.192Z,1109.00
2023-11-25T01:19:39.326Z,1106.00
2023-11-25T01:20:39.220Z,1108.00
2023-11-25T01:21:39.166Z,1102.00
2023-11-25T01:22:39.248Z,1098.00
2023-11-25T01:23:39.149Z,1093.00
2023-11-25T01:24:39.174Z,1079.00
2023-11-25T01:25:39.235Z,1078.00
2023-11-25T01:26:39.143Z,1074.00
2023-11-25T01:27:39.145Z,1075.00
2023-11-25T01:28:39.162Z,1073.00
2023-11-25T01:29:39.090Z,1071.00
2023-11-25T01:30:39.125Z,1071.00
2023-11-25T01:31:39.181Z,1080.00
2023-11-25T01:32:39.126Z,1076.00
2023-11-25T01:33:39.074Z,1076.00
2023-11-25T01:34:39.137Z,1077.00
2023-11-25T01:35:39.048Z,1074.00
2023-11-25T01:36:39.056Z,1074.00
2023-11-25T01:37:39.098Z,1073.00
2023-11-25T01:38:39.032Z,1070.00
2023-11-25T01:39:39.019Z,1063.00
2023-11-25T01:40:39.047Z,1058.00
2023-11-25T01:41:39.005Z,1064.00
2023-11-25T01:42:38.996Z,1068.00
2023-11-25T01:43:39.031Z,1065.00
2023-11-25T01:44:39.008Z,1064.00
2023-11-25T01:45:38.980Z,1032.00
2023-11-25T01:46:39.116Z,1039.00
2023-11-25T01:47:38.981Z,1044.00
2023-11-25T01:48:38.949Z,1049.00
2023-11-25T01:49:38.985Z,1049.00
2023-11-25T01:50:38.952Z,1048.00
2023-11-25T01:51:38.919Z,1047.00
2023-11-25T01:52:38.994Z,1047.00
2023-11-25T01:53:38.889Z,1044.00
2023-11-25T01:54:38.913Z,1047.00
2023-11-25T01:55:38.917Z,1046.00
2023-11-25T01:56:38.900Z,1052.00
2023-11-25T01:57:38.909Z,1052.00
2023-11-25T01:58:38.898Z,1049.00
2023-11-25T01:59:38.871Z,1048.00
2023-11-25T02:00:38.852Z,1043.00
2023-11-25T02:01:38.971Z,1043.00
2023-11-25T02:02:39.162Z,1040.00
2023-11-25T02:03:38.839Z,1041.00
2023-11-25T02:04:38.938Z,1042.00
2023-11-25T02:05:38.787Z,1047.00
2023-11-25T02:06:38.792Z,1052.00
2023-11-25T02:07:38.807Z,1047.00
2023-11-25T02:08:38.785Z,1043.00
2023-11-25T02:09:38.775Z,1042.00
2023-11-25T02:10:38.805Z,1039.00
2023-11-25T02:11:38.778Z,1041.00
2023-11-25T02:12:38.730Z,1050.00
2023-11-25T02:13:38.844Z,1051.00
2023-11-25T02:14:38.720Z,1044.00
2023-11-25T02:15:38.712Z,1038.00
2023-11-25T02:16:38.741Z,1045.00
2023-11-25T02:17:38.746Z,1042.00
2023-11-25T02:18:38.695Z,1039.00
2023-11-25T02:19:38.689Z,1036.00
2023-11-25T02:20:38.665Z,1036.00
2023-11-25T02:21:38.663Z,1035.00
2023-11-25T02:22:38.700Z,1037.00
2023-11-25T02:23:38.675Z,1037.00
2023-11-25T02:24:38.710Z,1037.00
2023-11-25T02:25:38.674Z,1035.00
2023-11-25T02:26:38.624Z,1031.00
2023-11-25T02:27:38.611Z,1029.00
2023-11-25T02:28:38.646Z,1028.00
2023-11-25T02:29:38.597Z,1031.00
2023-11-25T02:30:38.600Z,1024.00
2023-11-25T02:31:38.664Z,1026.00
2023-11-25T02:32:38.603Z,1023.00
2023-11-25T02:33:38.564Z,1023.00
2023-11-25T02:34:38.567Z,1017.00
2023-11-25T02:35:38.567Z,1015.00
2023-11-25T02:36:38.547Z,1018.00
2023-11-25T02:37:38.593Z,1020.00
2023-11-25T02:38:38.501Z,1016.00
2023-11-25T02:39:38.520Z,1018.00
2023-11-25T02:40:38.538Z,1021.00
2023-11-25T02:41:38.516Z,1014.00
2023-11-25T02:42:38.471Z,1015.00
2023-11-25T02:43:38.528Z,1009.00
2023-11-25T02:44:38.475Z,1013.00
2023-11-25T02:45:38.455Z,1016.00
2023-11-25T02:46:38.464Z,1016.00
2023-11-25T02:47:38.578Z,1021.00
2023-11-25T02:48:38.421Z,1025.00
2023-11-25T02:49:38.436Z,1015.00
2023-11-25T02:50:38.421Z,1015.00
2023-11-25T02:51:38.414Z,1014.00
2023-11-25T02:52:38.429Z,1012.00
2023-11-25T02:53:38.397Z,1012.00
2023-11-25T02:54:38.392Z,1011.00
2023-11-25T02:55:38.447Z,1005.00
2023-11-25T02:56:38.362Z,1002.00
2023-11-25T02:57:38.368Z,1005.00
2023-11-25T02:58:38.372Z,1003.00
2023-11-25T02:59:38.342Z,1001.00
2023-11-25T03:00:38.346Z,1000.00
2023-11-25T03:01:38.375Z,997.00
2023-11-25T03:02:38.502Z,994.00
2023-11-25T03:03:38.359Z,988.00
2023-11-25T03:04:38.339Z,985.00
2023-11-25T03:05:38.417Z,985.00
2023-11-25T03:06:38.276Z,985.00
2023-11-25T03:07:38.303Z,982.00
2023-11-25T03:08:38.268Z,981.00
2023-11-25T03:09:38.242Z,984.00
2023-11-25T03:10:38.305Z,986.00
2023-11-25T03:11:48.614Z,985.00
2023-11-25T03:12:38.221Z,983.00
2023-11-25T03:13:38.228Z,981.00
2023-11-25T03:14:38.234Z,978.00
2023-11-25T03:15:38.190Z,982.00
2023-11-25T03:16:38.296Z,982.00
2023-11-25T03:17:38.207Z,983.00
2023-11-25T03:18:38.156Z,986.00
2023-11-25T03:19:38.202Z,984.00
2023-11-25T03:20:38.147Z,985.00
2023-11-25T03:21:38.170Z,980.00
2023-11-25T03:22:38.153Z,978.00
2023-11-25T03:23:38.154Z,975.00
2023-11-25T03:24:38.127Z,978.00
2023-11-25T03:25:38.191Z,979.00
2023-11-25T03:26:38.102Z,976.00
2023-11-25T03:27:38.112Z,972.00
2023-11-25T03:28:38.126Z,971.00
2023-11-25T03:29:38.077Z,974.00
2023-11-25T03:30:38.061Z,977.00
2023-11-25T03:31:38.155Z,980.00
2023-11-25T03:32:38.127Z,978.00
2023-11-25T03:33:38.055Z,978.00
2023-11-25T03:34:38.038Z,975.00
2023-11-25T03:35:38.017Z,984.00
2023-11-25T03:36:38.001Z,983.00
2023-11-25T03:37:38.100Z,980.00
2023-11-25T03:38:37.991Z,978.00
2023-11-25T03:39:37.984Z,973.00
2023-11-25T03:40:38.085Z,973.00
2023-11-25T03:41:38.052Z,974.00
2023-11-25T03:42:38.002Z,978.00
2023-11-25T03:43:38.024Z,972.00
2023-11-25T03:44:38.058Z,974.00
2023-11-25T03:45:37.987Z,970.00
2023-11-25T03:46:38.060Z,969.00
2023-11-25T03:47:37.995Z,965.00
2023-11-25T03:48:37.933Z,966.00
2023-11-25T03:49:38.053Z,966.00
2023-11-25T03:50:37.924Z,965.00
2023-11-25T03:51:37.938Z,963.00
2023-11-25T03:52:48.839Z,963.00
2023-11-25T03:53:37.926Z,959.00
2023-11-25T03:54:37.908Z,954.00
2023-11-25T03:55:37.916Z,952.00
2023-11-25T03:56:37.849Z,953.00
2023-11-25T03:57:37.846Z,958.00
2023-11-25T03:58:37.853Z,955.00
2023-11-25T03:59:37.820Z,954.00
2023-11-25T04:00:37.792Z,954.00
2023-11-25T04:01:38.048Z,952.00
2023-11-25T04:02:37.935Z,954.00
2023-11-25T04:03:37.864Z,955.00
2023-11-25T04:04:37.833Z,958.00
2023-11-25T04:05:37.755Z,955.00
2023-11-25T04:06:37.762Z,952.00
2023-11-25T04:07:37.802Z,948.00
2023-11-25T04:08:37.740Z,949.00
2023-11-25T04:09:37.718Z,950.00
2023-11-25T04:10:37.802Z,947.00
2023-11-25T04:11:37.704Z,946.00
2023-11-25T04:12:37.698Z,941.00
2023-11-25T04:13:37.727Z,937.00
2023-11-25T04:14:37.670Z,937.00
2023-11-25T04:15:37.688Z,941.00
2023-11-25T04:16:37.761Z,938.00
2023-11-25T04:17:37.733Z,927.00
2023-11-25T04:18:37.647Z,925.00
2023-11-25T04:19:37.709Z,923.00
2023-11-25T04:20:37.619Z,925.00
2023-11-25T04:21:37.624Z,926.00
2023-11-25T04:22:37.642Z,927.00
2023-11-25T04:23:37.605Z,929.00
2023-11-25T04:24:37.602Z,930.00
2023-11-25T04:25:38.063Z,924.00
2023-11-25T04:26:37.586Z,928.00
2023-11-25T04:27:37.591Z,930.00
2023-11-25T04:28:37.573Z,927.00
2023-11-25T04:29:37.550Z,926.00
2023-11-25T04:30:37.732Z,925.00
2023-11-25T04:31:37.686Z,925.00
2023-11-25T04:32:37.593Z,926.00
2023-11-25T04:33:37.515Z,925.00
2023-11-25T04:34:37.588Z,933.00
2023-11-25T04:35:37.504Z,933.00
2023-11-25T04:36:37.502Z,928.00
2023-11-25T04:37:37.514Z,934.00
2023-11-25T04:38:37.466Z,935.00
2023-11-25T04:39:37.466Z,934.00
2023-11-25T04:40:37.476Z,935.00
2023-11-25T04:41:37.502Z,935.00
2023-11-25T04:42:37.428Z,934.00
2023-11-25T04:43:37.443Z,932.00
2023-11-25T04:44:37.426Z,929.00
2023-11-25T04:45:37.409Z,931.00
2023-11-25T04:46:37.441Z,929.00
2023-11-25T04:47:37.439Z,924.00
2023-11-25T04:48:37.393Z,925.00
2023-11-25T04:49:37.446Z,927.00
2023-11-25T04:50:37.380Z,916.00
2023-11-25T04:51:37.364Z,917.00
2023-11-25T04:52:37.407Z,919.00
2023-11-25T04:53:37.344Z,914.00
2023-11-25T04:54:37.341Z,918.00
2023-11-25T04:55:37.353Z,920.00
2023-11-25T04:56:37.324Z,917.00
2023-11-25T04:57:37.318Z,914.00
2023-11-25T04:58:37.347Z,910.00
2023-11-25T04:59:37.304Z,913.00
2023-11-25T05:00:37.281Z,912.00
2023-11-25T05:01:37.414Z,911.00
2023-11-25T05:02:37.309Z,907.00
2023-11-25T05:03:37.328Z,910.00
2023-11-25T05:04:37.416Z,910.00
2023-11-25T05:05:37.243Z,909.00
2023-11-25T05:06:37.245Z,910.00
2023-11-25T05:07:37.266Z,905.00
2023-11-25T05:08:37.217Z,902.00
2023-11-25T05:09:37.201Z,900.00
2023-11-25T05:10:37.267Z,895.00
2023-11-25T05:11:37.200Z,890.00
2023-11-25T05:12:37.183Z,895.00
2023-11-25T05:13:37.188Z,894.00
2023-11-25T05:14:37.184Z,892.00
2023-11-25T05:15:37.171Z,892.00
2023-11-25T05:16:37.190Z,896.00
2023-11-25T05:17:37.301Z,896.00
2023-11-25T05:18:37.128Z,892.00
2023-11-25T05:19:37.141Z,894.00
2023-11-25T05:20:37.102Z,896.00
2023-11-25T05:21:37.179Z,892.00
2023-11-25T05:22:37.177Z,896.00
2023-11-25T05:23:37.126Z,896.00
2023-11-25T05:24:37.066Z,899.00
2023-11-25T05:25:37.111Z,901.00
2023-11-25T05:26:37.093Z,900.00
2023-11-25T05:27:42.071Z,898.00
2023-11-25T05:28:37.119Z,895.00
2023-11-25T05:29:37.030Z,897.00
2023-11-25T05:30:37.040Z,895.00
2023-11-25T05:31:37.123Z,890.00
2023-11-25T05:32:37.031Z,890.00
2023-11-25T05:33:37.020Z,890.00
2023-11-25T05:34:37.024Z,892.00
2023-11-25T05:35:36.996Z,891.00
2023-11-25T05:36:36.991Z,890.00
2023-11-25T05:37:37.006Z,885.00
2023-11-25T05:38:36.960Z,888.00
2023-11-25T05:39:36.960Z,891.00
2023-11-25T05:40:36.956Z,893.00
2023-11-25T05:41:36.937Z,894.00
2023-11-25T05:42:36.937Z,893.00
2023-11-25T05:43:36.940Z,886.00
2023-11-25T05:44:36.908Z,885.00
2023-11-25T05:45:36.896Z,883.00
2023-11-25T05:46:36.940Z,886.00
2023-11-25T05:47:36.923Z,884.00
2023-11-25T05:48:36.888Z,880.00
2023-11-25T05:49:36.916Z,880.00
2023-11-25T05:50:36.873Z,879.00
2023-11-25T05:51:36.852Z,882.00
2023-11-25T05:52:36.901Z,882.00
2023-11-25T05:53:46.864Z,880.00
2023-11-25T05:54:36.823Z,878.00
2023-11-25T05:55:36.889Z,879.00
2023-11-25T05:56:36.801Z,878.00
2023-11-25T05:57:36.809Z,876.00
2023-11-25T05:58:36.853Z,876.00
2023-11-25T05:59:36.795Z,875.00
2023-11-25T06:00:36.779Z,871.00
2023-11-25T06:01:36.792Z,869.00
2023-11-25T06:02:36.757Z,869.00
2023-11-25T06:03:36.809Z,869.00
2023-11-25T06:04:36.869Z,870.00
2023-11-25T06:05:36.803Z,869.00
2023-11-25T06:06:36.736Z,866.00
2023-11-25T06:07:36.737Z,862.00
2023-11-25T06:08:36.706Z,863.00
2023-11-25T06:09:36.697Z,863.00
2023-11-25T06:10:36.736Z,861.00
2023-11-25T06:11:36.674Z,859.00
2023-11-25T06:12:36.672Z,863.00
2023-11-25T06:13:36.722Z,864.00
2023-11-25T06:14:36.652Z,865.00
2023-11-25T06:15:36.655Z,870.00
2023-11-25T06:16:38.405Z,872.00
2023-11-25T06:17:36.692Z,870.00
2023-11-25T06:18:36.716Z,870.00
2023-11-25T06:19:36.641Z,865.00
2023-11-25T06:20:36.585Z,863.00
2023-11-25T06:21:36.623Z,855.00
2023-11-25T06:22:36.602Z,853.00
2023-11-25T06:23:36.589Z,850.00
2023-11-25T06:24:36.591Z,853.00
2023-11-25T06:25:37.449Z,849.00
2023-11-25T06:26:36.642Z,842.00
2023-11-25T06:27:36.574Z,834.00
2023-11-25T06:28:36.544Z,837.00
2023-11-25T06:29:36.533Z,840.00
2023-11-25T06:30:36.525Z,836.00
2023-11-25T06:31:36.559Z,841.00
2023-11-25T06:32:36.549Z,839.00
2023-11-25T06:33:37.365Z,842.00
2023-11-25T06:34:57.552Z,847.00
2023-11-25T06:35:36.481Z,847.00
2023-11-25T06:36:36.470Z,848.00
2023-11-25T06:37:36.523Z,847.00
2023-11-25T06:38:36.491Z,844.00
2023-11-25T06:39:36.504Z,841.00
2023-11-25T06:40:36.488Z,840.00
2023-11-25T06:41:36.426Z,844.00
2023-11-25T06:42:36.425Z,846.00
2023-11-25T06:43:36.431Z,849.00
2023-11-25T06:44:36.398Z,849.00
2023-11-25T06:45:36.401Z,844.00
2023-11-25T06:46:36.495Z,837.00
2023-11-25T06:47:36.536Z,839.00
2023-11-25T06:48:36.380Z,840.00
2023-11-25T06:49:36.429Z,842.00
2023-11-25T06:50:36.376Z,846.00
2023-11-25T06:51:36.343Z,839.00
2023-11-25T06:52:36.376Z,838.00
2023-11-25T06:53:36.319Z,839.00
2023-11-25T06:54:36.317Z,841.00
2023-11-25T06:55:36.903Z,842.00
2023-11-25T06:56:36.302Z,843.00
2023-11-25T06:57:36.296Z,839.00
2023-11-25T06:58:36.311Z,837.00
2023-11-25T06:59:36.277Z,836.00
2023-11-25T07:00:36.324Z,836.00
2023-11-25T07:01:36.346Z,838.00
2023-11-25T07:02:36.317Z,839.00
2023-11-25T07:03:36.291Z,843.00
2023-11-25T07:04:36.282Z,845.00
2023-11-25T07:05:36.216Z,844.00
2023-11-25T07:06:36.212Z,842.00
2023-11-25T07:07:36.228Z,841.00
2023-11-25T07:08:36.195Z,839.00
2023-11-25T07:09:36.185Z,836.00
2023-11-25T07:10:37.002Z,828.00
2023-11-25T07:11:36.161Z,822.00
2023-11-25T07:12:36.161Z,822.00
2023-11-25T07:13:36.137Z,826.00
2023-11-25T07:14:36.141Z,824.00
2023-11-25T07:15:36.131Z,824.00
2023-11-25T07:16:36.224Z,825.00
2023-11-25T07:17:36.202Z,824.00
2023-11-25T07:18:36.104Z,823.00
2023-11-25T07:19:36.145Z,822.00
2023-11-25T07:20:36.077Z,815.00
2023-11-25T07:21:36.078Z,808.00
2023-11-25T07:22:36.097Z,808.00
2023-11-25T07:23:36.053Z,819.00
2023-11-25T07:24:36.057Z,821.00
2023-11-25T07:25:36.072Z,819.00
2023-11-25T07:26:36.057Z,820.00
2023-11-25T07:27:36.021Z,820.00
2023-11-25T07:28:36.045Z,819.00
2023-11-25T07:29:36.098Z,815.00
2023-11-25T07:30:36.078Z,819.00
2023-11-25T07:31:36.035Z,825.00
2023-11-25T07:32:36.019Z,825.00
2023-11-25T07:33:35.960Z,822.00
2023-11-25T07:34:36.015Z,822.00
2023-11-25T07:35:35.953Z,823.00
2023-11-25T07:36:35.969Z,821.00
2023-11-25T07:37:36.032Z,821.00
2023-11-25T07:38:35.957Z,819.00
2023-11-25T07:39:35.924Z,820.00
2023-11-25T07:40:35.941Z,822.00
2023-11-25T07:41:35.924Z,819.00
2023-11-25T07:42:35.905Z,819.00
2023-11-25T07:43:35.920Z,818.00
2023-11-25T07:44:35.883Z,809.00
2023-11-25T07:45:35.877Z,812.00
2023-11-25T07:46:35.917Z,811.00
2023-11-25T07:47:36.132Z,806.00
2023-11-25T07:48:35.866Z,805.00
2023-11-25T07:49:35.904Z,806.00
2023-11-25T07:50:35.833Z,805.00
2023-11-25T07:51:35.807Z,807.00
2023-11-25T07:52:35.838Z,806.00
2023-11-25T07:53:35.789Z,805.00
2023-11-25T07:54:35.805Z,805.00
2023-11-25T07:55:35.834Z,812.00
2023-11-25T07:56:35.786Z,804.00
2023-11-25T07:57:35.776Z,805.00
2023-11-25T07:58:35.795Z,808.00
2023-11-25T07:59:35.756Z,799.00
2023-11-25T08:00:35.750Z,799.00
2023-11-25T08:01:35.798Z,803.00
2023-11-25T08:02:35.895Z,806.00
2023-11-25T08:03:35.862Z,808.00
2023-11-25T08:04:35.756Z,806.00
2023-11-25T08:05:35.693Z,803.00
2023-11-25T08:06:35.702Z,802.00
2023-11-25T08:07:35.720Z,804.00
2023-11-25T08:08:35.690Z,803.00
2023-11-25T08:09:35.655Z,801.00
2023-11-25T08:10:36.320Z,799.00
2023-11-25T08:11:35.638Z,795.00
2023-11-25T08:12:35.696Z,796.00
2023-11-25T08:13:35.662Z,795.00
2023-11-25T08:14:35.624Z,794.00
2023-11-25T08:15:35.634Z,794.00
2023-11-25T08:16:35.707Z,793.00
2023-11-25T08:17:35.700Z,788.00
2023-11-25T08:18:35.606Z,791.00
2023-11-25T08:19:35.604Z,795.00
2023-11-25T08:20:35.565Z,793.00
2023-11-25T08:21:35.557Z,787.00
2023-11-25T08:22:35.580Z,786.00
2023-11-25T08:23:35.545Z,785.00
2023-11-25T08:24:35.546Z,784.00
2023-11-25T08:25:35.606Z,782.00
2023-11-25T08:26:35.524Z,782.00
2023-11-25T08:27:35.513Z,783.00
2023-11-25T08:28:35.613Z,780.00
2023-11-25T08:29:35.484Z,779.00
2023-11-25T08:30:35.490Z,782.00
2023-11-25T08:31:35.569Z,782.00
2023-11-25T08:32:35.596Z,777.00
2023-11-25T08:33:35.463Z,777.00
2023-11-25T08:34:35.514Z,775.00
2023-11-25T08:35:35.454Z,772.00
2023-11-25T08:36:35.427Z,773.00
2023-11-25T08:37:35.442Z,777.00
2023-11-25T08:38:35.449Z,777.00
2023-11-25T08:39:35.407Z,782.00
2023-11-25T08:40:35.440Z,784.00
2023-11-25T08:41:35.391Z,788.00
2023-11-25T08:42:35.393Z,787.00
2023-11-25T08:43:35.405Z,787.00
2023-11-25T08:44:35.373Z,783.00
2023-11-25T08:45:35.393Z,781.00
2023-11-25T08:46:35.394Z,778.00
2023-11-25T08:47:35.343Z,778.00
2023-11-25T08:48:35.328Z,782.00
2023-11-25T08:49:35.360Z,782.00
2023-11-25T08:50:40.334Z,781.00
2023-11-25T08:51:35.286Z,784.00
2023-11-25T08:52:35.313Z,787.00
2023-11-25T08:53:35.272Z,784.00
2023-11-25T08:54:35.281Z,785.00
2023-11-25T08:55:35.254Z,786.00
2023-11-25T08:56:37.412Z,788.00
2023-11-25T08:57:35.300Z,788.00
2023-11-25T08:58:35.277Z,789.00
2023-11-25T08:59:35.243Z,788.00
2023-11-25T09:00:35.234Z,786.00
2023-11-25T09:01:35.260Z,789.00
2023-11-25T09:02:35.255Z,787.00
2023-11-25T09:03:35.465Z,783.00
2023-11-25T09:04:35.244Z,783.00
2023-11-25T09:05:35.316Z,782.00
2023-11-25T09:06:35.298Z,784.00
2023-11-25T09:07:36.155Z,783.00
2023-11-25T09:08:35.333Z,779.00
2023-11-25T09:09:35.347Z,782.00
2023-11-25T09:10:35.399Z,786.00
2023-11-25T09:11:35.325Z,784.00
2023-11-25T09:12:35.322Z,788.00
2023-11-25T09:13:35.310Z,784.00
2023-11-25T09:14:35.327Z,782.00
2023-11-25T09:15:41.614Z,779.00
2023-11-25T09:16:36.351Z,776.00
2023-11-25T09:17:35.261Z,772.00
2023-11-25T09:18:35.271Z,769.00
2023-11-25T09:19:35.265Z,769.00
2023-11-25T09:20:35.234Z,763.00
2023-11-25T09:21:35.220Z,761.00
2023-11-25T09:22:35.291Z,759.00
2023-11-25T09:23:35.211Z,753.00
2023-11-25T09:24:35.210Z,758.00
2023-11-25T09:25:35.243Z,762.00
2023-11-25T09:26:35.199Z,760.00
2023-11-25T09:27:35.189Z,753.00
2023-11-25T09:28:35.180Z,755.00
2023-11-25T09:29:35.170Z,759.00
2023-11-25T09:30:35.283Z,758.00
2023-11-25T09:31:35.185Z,754.00
2023-11-25T09:32:35.169Z,755.00
2023-11-25T09:33:35.150Z,757.00
2023-11-25T09:34:35.185Z,757.00
2023-11-25T09:35:35.108Z,756.00
2023-11-25T09:36:35.116Z,755.00
2023-11-25T09:37:35.103Z,756.00
2023-11-25T09:38:35.092Z,762.00
2023-11-25T09:39:35.087Z,764.00
2023-11-25T09:40:35.108Z,763.00
2023-11-25T09:41:35.082Z,763.00
2023-11-25T09:42:35.059Z,763.00
2023-11-25T09:43:35.104Z,761.00
2023-11-25T09:44:36.756Z,750.00
2023-11-25T09:45:35.058Z,751.00
2023-11-25T09:46:35.056Z,752.00
2023-11-25T09:47:35.061Z,757.00
2023-11-25T09:48:34.998Z,759.00
2023-11-25T09:49:35.039Z,757.00
2023-11-25T09:50:34.976Z,756.00
2023-11-25T09:51:34.992Z,759.00
2023-11-25T09:52:34.996Z,757.00
2023-11-25T09:53:34.988Z,755.00
2023-11-25T09:54:36.836Z,751.00
2023-11-25T09:55:34.994Z,751.00
2023-11-25T09:56:34.942Z,753.00
2023-11-25T09:57:34.932Z,755.00
2023-11-25T09:58:34.928Z,754.00
2023-11-25T09:59:34.898Z,753.00
2023-11-25T10:00:34.899Z,752.00
2023-11-25T10:01:35.035Z,750.00
2023-11-25T10:02:35.058Z,750.00
2023-11-25T10:03:35.059Z,752.00
2023-11-25T10:04:35.038Z,749.00
2023-11-25T10:05:34.871Z,752.00
2023-11-25T10:06:34.866Z,752.00
2023-11-25T10:07:34.838Z,755.00
2023-11-25T10:08:44.885Z,755.00
2023-11-25T10:09:34.814Z,756.00
2023-11-25T10:10:34.831Z,753.00
2023-11-25T10:11:34.802Z,752.00
2023-11-25T10:12:34.797Z,750.00
2023-11-25T10:13:34.791Z,749.00
2023-11-25T10:14:34.798Z,747.00
2023-11-25T10:15:34.791Z,749.00
2023-11-25T10:16:34.798Z,747.00
2023-11-25T10:17:34.748Z,746.00
2023-11-25T10:18:34.748Z,749.00
2023-11-25T10:19:34.764Z,748.00
2023-11-25T10:20:34.718Z,749.00
2023-11-25T10:21:34.721Z,747.00
2023-11-25T10:22:34.764Z,747.00
2023-11-25T10:23:34.693Z,744.00
2023-11-25T10:24:34.687Z,741.00
2023-11-25T10:25:34.692Z,743.00
2023-11-25T10:26:34.700Z,744.00
2023-11-25T10:27:34.659Z,742.00
2023-11-25T10:28:35.243Z,744.00
2023-11-25T10:29:34.634Z,746.00
2023-11-25T10:30:34.646Z,746.00
2023-11-25T10:31:34.645Z,744.00
2023-11-25T10:32:34.656Z,749.00
2023-11-25T10:33:34.646Z,747.00
2023-11-25T10:34:34.670Z,745.00
2023-11-25T10:35:34.580Z,742.00
2023-11-25T10:36:34.602Z,739.00
2023-11-25T10:37:34.574Z,739.00
2023-11-25T10:38:34.607Z,742.00
2023-11-25T10:39:34.539Z,742.00
2023-11-25T10:40:34.604Z,742.00
2023-11-25T10:41:34.536Z,739.00
2023-11-25T10:42:34.538Z,736.00
2023-11-25T10:43:34.851Z,741.00
2023-11-25T10:44:34.518Z,740.00
2023-11-25T10:45:35.606Z,739.00
2023-11-25T10:46:34.510Z,737.00
2023-11-25T10:47:34.540Z,738.00
2023-11-25T10:48:34.461Z,735.00
2023-11-25T10:49:34.521Z,734.00
2023-11-25T10:50:34.570Z,732.00
2023-11-25T10:51:35.070Z,733.00
2023-11-25T10:52:34.459Z,733.00
2023-11-25T10:53:34.461Z,733.00
2023-11-25T10:54:35.338Z,735.00
2023-11-25T10:55:34.430Z,738.00
2023-11-25T10:56:34.406Z,735.00
2023-11-25T10:57:34.388Z,735.00
2023-11-25T10:58:34.402Z,729.00
2023-11-25T10:59:34.399Z,731.00
2023-11-25T11:00:34.365Z,732.00
2023-11-25T11:01:34.562Z,732.00
2023-11-25T11:02:34.466Z,734.00
2023-11-25T11:03:34.419Z,738.00
2023-11-25T11:04:34.398Z,734.00
2023-11-25T11:05:34.337Z,732.00
2023-11-25T11:06:34.328Z,732.00
2023-11-25T11:07:34.374Z,730.00
2023-11-25T11:08:34.342Z,731.00
2023-11-25T11:09:34.301Z,733.00
2023-11-25T11:10:34.309Z,733.00
2023-11-25T11:11:34.291Z,731.00
2023-11-25T11:12:34.291Z,730.00
2023-11-25T11:13:34.348Z,729.00
2023-11-25T11:14:34.316Z,727.00
2023-11-25T11:15:34.240Z,727.00
2023-11-25T11:16:34.256Z,729.00
2023-11-25T11:17:34.283Z,728.00
2023-11-25T11:18:34.247Z,727.00
2023-11-25T11:19:34.384Z,729.00
2023-11-25T11:20:34.241Z,731.00
2023-11-25T11:21:34.190Z,729.00
2023-11-25T11:22:34.222Z,731.00
2023-11-25T11:23:34.190Z,731.00
2023-11-25T11:24:34.194Z,726.00
2023-11-25T11:25:34.203Z,724.00
2023-11-25T11:26:34.164Z,719.00
2023-11-25T11:27:34.128Z,718.00
2023-11-25T11:28:34.172Z,717.00
2023-11-25T11:29:34.127Z,717.00
2023-11-25T11:30:34.112Z,716.00
2023-11-25T11:31:34.216Z,717.00
2023-11-25T11:32:34.169Z,720.00
2023-11-25T11:33:34.133Z,720.00
2023-11-25T11:34:34.146Z,717.00
2023-11-25T11:35:34.063Z,723.00
2023-11-25T11:36:34.066Z,724.00
2023-11-25T11:37:34.085Z,727.00
2023-11-25T11:38:34.069Z,725.00
2023-11-25T11:39:34.051Z,726.00
2023-11-25T11:40:34.074Z,726.00
2023-11-25T11:41:34.002Z,726.00
2023-11-25T11:42:34.149Z,725.00
2023-11-25T11:43:34.023Z,728.00
2023-11-25T11:44:33.986Z,725.00
2023-11-25T11:45:33.989Z,725.00
2023-11-25T11:46:33.980Z,723.00
2023-11-25T11:47:34.010Z,719.00
2023-11-25T11:48:33.943Z,719.00
2023-11-25T11:49:33.967Z,718.00
2023-11-25T11:50:33.956Z,717.00
2023-11-25T11:51:33.929Z,716.00
2023-11-25T11:52:33.971Z,718.00
2023-11-25T11:53:33.942Z,722.00
2023-11-25T11:54:33.897Z,724.00
2023-11-25T11:55:33.962Z,726.00
2023-11-25T11:56:33.911Z,727.00
2023-11-25T11:57:33.891Z,728.00
2023-11-25T11:58:33.906Z,728.00
2023-11-25T11:59:33.879Z,733.00
2023-11-25T12:00:33.825Z,734.00
2023-11-25T12:01:33.879Z,735.00
2023-11-25T12:02:34.085Z,735.00
2023-11-25T12:03:33.984Z,737.00
2023-11-25T12:04:33.892Z,737.00
2023-11-25T12:05:33.867Z,735.00
2023-11-25T12:06:33.789Z,736.00
2023-11-25T12:07:33.796Z,735.00
2023-11-25T12:08:33.770Z,736.00
2023-11-25T12:09:33.773Z,738.00
2023-11-25T12:10:33.788Z,738.00
2023-11-25T12:11:33.761Z,737.00
2023-11-25T12:12:33.739Z,734.00
2023-11-25T12:13:33.764Z,736.00
2023-11-25T12:14:33.706Z,737.00
2023-11-25T12:15:33.718Z,738.00
2023-11-25T12:16:33.745Z,740.00
2023-11-25T12:17:33.765Z,743.00
2023-11-25T12:18:33.709Z,743.00
2023-11-25T12:19:33.698Z,741.00
2023-11-25T12:20:33.660Z,740.00
2023-11-25T12:21:33.657Z,739.00
2023-11-25T12:22:33.660Z,739.00